sensor_id;sensor_type;location;lat;lon;timestamp;pressure;altitude;pressure_sealevel;temperature;humidity
5126;BME280;63008;53.112;8.896;2022-09-03T00:00:12;101614.50;;;14.93;58.40
5126;BME280;63008;53.112;8.896;2022-09-03T00:04:52;101609.28;;;14.92;58.12
5126;BME280;63008;53.112;8.896;2022-09-03T00:07:01;101605.94;;;14.86;58.36
5126;BME280;63008;53.112;8.896;2022-09-03T00:11:34;101602.00;;;14.75;58.71
5126;BME280;63008;53.112;8.896;2022-09-03T00:13:50;101612.22;;;14.75;58.73
5126;BME280;63008;53.112;8.896;2022-09-03T00:15:56;101617.31;;;14.73;58.78
5126;BME280;63008;53.112;8.896;2022-09-03T00:18:19;101611.63;;;14.69;59.07
5126;BME280;63008;53.112;8.896;2022-09-03T00:20:43;101612.91;;;14.72;58.95
5126;BME280;63008;53.112;8.896;2022-09-03T00:22:53;101613.81;;;14.64;59.20
5126;BME280;63008;53.112;8.896;2022-09-03T00:24:57;101614.00;;;14.59;59.36
5126;BME280;63008;53.112;8.896;2022-09-03T00:27:02;101610.09;;;14.60;59.25
5126;BME280;63008;53.112;8.896;2022-09-03T00:29:12;101609.63;;;14.58;59.27
5126;BME280;63008;53.112;8.896;2022-09-03T00:31:23;101622.06;;;14.52;59.76
5126;BME280;63008;53.112;8.896;2022-09-03T00:33:28;101618.81;;;14.50;59.61
5126;BME280;63008;53.112;8.896;2022-09-03T00:35:48;101623.88;;;14.48;59.68
5126;BME280;63008;53.112;8.896;2022-09-03T00:37:52;101619.22;;;14.40;59.96
5126;BME280;63008;53.112;8.896;2022-09-03T00:39:54;101619.13;;;14.37;59.98
5126;BME280;63008;53.112;8.896;2022-09-03T00:46:50;101616.69;;;14.35;60.03
5126;BME280;63008;53.112;8.896;2022-09-03T00:51:23;101613.44;;;14.33;60.06
5126;BME280;63008;53.112;8.896;2022-09-03T01:00:29;101604.22;;;14.29;60.12
5126;BME280;63008;53.112;8.896;2022-09-03T01:07:28;101610.97;;;14.20;60.52
5126;BME280;63008;53.112;8.896;2022-09-03T01:12:18;101607.78;;;14.09;60.62
5126;BME280;63008;53.112;8.896;2022-09-03T01:14:26;101605.00;;;14.09;60.68
5126;BME280;63008;53.112;8.896;2022-09-03T01:23:47;101607.16;;;14.04;60.93
5126;BME280;63008;53.112;8.896;2022-09-03T01:30:17;101606.13;;;13.88;61.37
5126;BME280;63008;53.112;8.896;2022-09-03T01:41:57;101614.66;;;13.74;61.69
5126;BME280;63008;53.112;8.896;2022-09-03T01:46:35;101615.84;;;13.65;62.14
5126;BME280;63008;53.112;8.896;2022-09-03T01:49:01;101608.53;;;13.69;62.30
5126;BME280;63008;53.112;8.896;2022-09-03T01:51:23;101607.03;;;13.71;62.12
5126;BME280;63008;53.112;8.896;2022-09-03T01:58:04;101604.19;;;13.59;62.36
5126;BME280;63008;53.112;8.896;2022-09-03T02:00:14;101603.09;;;13.52;62.58
5126;BME280;63008;53.112;8.896;2022-09-03T02:02:20;101604.41;;;13.46;62.68
5126;BME280;63008;53.112;8.896;2022-09-03T02:04:24;101607.81;;;13.43;62.90
5126;BME280;63008;53.112;8.896;2022-09-03T02:06:26;101606.09;;;13.38;63.01
5126;BME280;63008;53.112;8.896;2022-09-03T02:08:29;101606.72;;;13.35;62.99
5126;BME280;63008;53.112;8.896;2022-09-03T02:10:31;101606.91;;;13.30;63.17
5126;BME280;63008;53.112;8.896;2022-09-03T02:12:35;101610.84;;;13.21;63.44
5126;BME280;63008;53.112;8.896;2022-09-03T02:14:37;101614.56;;;13.25;63.41
5126;BME280;63008;53.112;8.896;2022-09-03T02:16:38;101610.66;;;13.26;63.41
5126;BME280;63008;53.112;8.896;2022-09-03T02:18:45;101611.16;;;13.19;63.59
5126;BME280;63008;53.112;8.896;2022-09-03T02:20:47;101615.72;;;13.15;63.77
5126;BME280;63008;53.112;8.896;2022-09-03T02:22:49;101609.91;;;13.17;63.65
5126;BME280;63008;53.112;8.896;2022-09-03T02:24:53;101612.66;;;13.17;63.61
5126;BME280;63008;53.112;8.896;2022-09-03T02:26:54;101607.78;;;13.22;63.76
5126;BME280;63008;53.112;8.896;2022-09-03T02:28:55;101607.88;;;13.34;63.35
5126;BME280;63008;53.112;8.896;2022-09-03T02:30:57;101614.72;;;13.28;63.19
5126;BME280;63008;53.112;8.896;2022-09-03T02:32:58;101605.66;;;13.19;63.64
5126;BME280;63008;53.112;8.896;2022-09-03T02:34:59;101612.03;;;13.11;64.04
5126;BME280;63008;53.112;8.896;2022-09-03T02:37:11;101609.44;;;13.15;64.02
5126;BME280;63008;53.112;8.896;2022-09-03T02:39:13;101606.31;;;13.16;63.67
5126;BME280;63008;53.112;8.896;2022-09-03T02:41:13;101607.34;;;13.12;64.03
5126;BME280;63008;53.112;8.896;2022-09-03T02:43:31;101610.22;;;13.15;63.87
5126;BME280;63008;53.112;8.896;2022-09-03T02:45:34;101602.47;;;13.09;64.11
5126;BME280;63008;53.112;8.896;2022-09-03T02:47:41;101609.75;;;13.13;63.97
5126;BME280;63008;53.112;8.896;2022-09-03T02:49:43;101613.16;;;13.10;63.91
5126;BME280;63008;53.112;8.896;2022-09-03T02:51:46;101606.22;;;13.04;63.98
5126;BME280;63008;53.112;8.896;2022-09-03T02:53:46;101607.03;;;12.96;64.43
5126;BME280;63008;53.112;8.896;2022-09-03T02:55:47;101597.31;;;12.99;64.53
5126;BME280;63008;53.112;8.896;2022-09-03T02:57:48;101605.09;;;12.97;64.36
5126;BME280;63008;53.112;8.896;2022-09-03T02:59:48;101605.75;;;12.94;64.64
5126;BME280;63008;53.112;8.896;2022-09-03T03:01:49;101598.63;;;12.93;64.58
5126;BME280;63008;53.112;8.896;2022-09-03T03:03:50;101607.50;;;12.90;64.68
5126;BME280;63008;53.112;8.896;2022-09-03T03:05:52;101609.31;;;12.86;64.94
5126;BME280;63008;53.112;8.896;2022-09-03T03:07:54;101606.25;;;12.87;64.83
5126;BME280;63008;53.112;8.896;2022-09-03T03:09:57;101606.09;;;12.92;64.69
5126;BME280;63008;53.112;8.896;2022-09-03T03:11:58;101599.25;;;12.81;65.03
5126;BME280;63008;53.112;8.896;2022-09-03T03:14:00;101606.75;;;12.81;65.00
5126;BME280;63008;53.112;8.896;2022-09-03T03:16:04;101601.53;;;12.79;64.95
5126;BME280;63008;53.112;8.896;2022-09-03T03:18:05;101603.16;;;12.80;65.10
5126;BME280;63008;53.112;8.896;2022-09-03T03:20:07;101603.31;;;12.84;65.00
5126;BME280;63008;53.112;8.896;2022-09-03T03:22:08;101600.41;;;12.80;65.04
5126;BME280;63008;53.112;8.896;2022-09-03T03:24:09;101604.00;;;12.73;65.20
5126;BME280;63008;53.112;8.896;2022-09-03T03:26:13;101607.88;;;12.72;65.16
5126;BME280;63008;53.112;8.896;2022-09-03T03:28:14;101610.00;;;12.74;65.14
5126;BME280;63008;53.112;8.896;2022-09-03T03:30:14;101606.41;;;12.74;65.17
5126;BME280;63008;53.112;8.896;2022-09-03T03:32:15;101609.03;;;12.71;65.23
5126;BME280;63008;53.112;8.896;2022-09-03T03:34:16;101609.31;;;12.77;65.09
5126;BME280;63008;53.112;8.896;2022-09-03T03:36:16;101601.25;;;12.73;65.06
5126;BME280;63008;53.112;8.896;2022-09-03T03:38:17;101606.75;;;12.73;65.20
5126;BME280;63008;53.112;8.896;2022-09-03T03:40:17;101601.72;;;12.74;65.20
5126;BME280;63008;53.112;8.896;2022-09-03T03:42:19;101603.34;;;12.67;65.25
5126;BME280;63008;53.112;8.896;2022-09-03T03:44:20;101600.28;;;12.69;65.39
5126;BME280;63008;53.112;8.896;2022-09-03T03:46:21;101608.19;;;12.70;65.29
5126;BME280;63008;53.112;8.896;2022-09-03T03:48:23;101609.19;;;12.66;65.36
5126;BME280;63008;53.112;8.896;2022-09-03T03:50:24;101602.53;;;12.58;65.47
5126;BME280;63008;53.112;8.896;2022-09-03T03:52:25;101607.44;;;12.53;65.55
5126;BME280;63008;53.112;8.896;2022-09-03T03:54:27;101605.31;;;12.50;65.82
5126;BME280;63008;53.112;8.896;2022-09-03T03:56:27;101600.13;;;12.48;65.77
5126;BME280;63008;53.112;8.896;2022-09-03T03:58:29;101593.66;;;12.53;65.67
5126;BME280;63008;53.112;8.896;2022-09-03T04:00:30;101599.31;;;12.56;65.73
5126;BME280;63008;53.112;8.896;2022-09-03T04:02:32;101601.44;;;12.51;65.76
5126;BME280;63008;53.112;8.896;2022-09-03T04:04:33;101604.50;;;12.49;65.88
5126;BME280;63008;53.112;8.896;2022-09-03T04:06:33;101603.06;;;12.43;65.92
5126;BME280;63008;53.112;8.896;2022-09-03T04:08:36;101604.69;;;12.44;65.92
5126;BME280;63008;53.112;8.896;2022-09-03T04:10:37;101599.00;;;12.49;65.66
5126;BME280;63008;53.112;8.896;2022-09-03T04:12:38;101602.25;;;12.51;65.72
5126;BME280;63008;53.112;8.896;2022-09-03T04:14:38;101603.69;;;12.49;65.93
5126;BME280;63008;53.112;8.896;2022-09-03T04:16:39;101609.84;;;12.46;66.03
5126;BME280;63008;53.112;8.896;2022-09-03T04:18:40;101608.72;;;12.47;65.99
5126;BME280;63008;53.112;8.896;2022-09-03T04:20:41;101600.78;;;12.54;65.56
5126;BME280;63008;53.112;8.896;2022-09-03T04:22:41;101603.06;;;12.52;65.60
5126;BME280;63008;53.112;8.896;2022-09-03T04:24:42;101597.03;;;12.50;65.67
5126;BME280;63008;53.112;8.896;2022-09-03T04:26:42;101604.34;;;12.54;65.86
5126;BME280;63008;53.112;8.896;2022-09-03T04:28:43;101606.44;;;12.49;65.67
5126;BME280;63008;53.112;8.896;2022-09-03T04:30:44;101603.06;;;12.52;65.65
5126;BME280;63008;53.112;8.896;2022-09-03T04:32:48;101604.34;;;12.54;65.50
5126;BME280;63008;53.112;8.896;2022-09-03T04:34:52;101601.59;;;12.54;65.66
5126;BME280;63008;53.112;8.896;2022-09-03T04:36:53;101595.94;;;12.51;65.56
5126;BME280;63008;53.112;8.896;2022-09-03T04:38:54;101593.19;;;12.59;65.57
5126;BME280;63008;53.112;8.896;2022-09-03T04:40:58;101598.34;;;12.61;65.73
5126;BME280;63008;53.112;8.896;2022-09-03T04:43:00;101598.34;;;12.61;65.83
5126;BME280;63008;53.112;8.896;2022-09-03T04:45:00;101594.94;;;12.55;65.46
5126;BME280;63008;53.112;8.896;2022-09-03T04:47:01;101595.75;;;12.56;65.76
5126;BME280;63008;53.112;8.896;2022-09-03T04:49:02;101594.44;;;12.62;65.53
5126;BME280;63008;53.112;8.896;2022-09-03T04:51:05;101592.34;;;12.67;65.22
5126;BME280;63008;53.112;8.896;2022-09-03T04:53:06;101588.28;;;12.65;65.37
5126;BME280;63008;53.112;8.896;2022-09-03T04:55:07;101589.91;;;12.66;65.44
5126;BME280;63008;53.112;8.896;2022-09-03T04:57:10;101590.56;;;12.63;65.35
5126;BME280;63008;53.112;8.896;2022-09-03T04:59:10;101599.47;;;12.68;65.37
5126;BME280;63008;53.112;8.896;2022-09-03T05:01:19;101591.84;;;12.73;65.08
5126;BME280;63008;53.112;8.896;2022-09-03T05:03:20;101598.78;;;12.79;65.01
5126;BME280;63008;53.112;8.896;2022-09-03T05:05:21;101593.63;;;12.78;65.20
5126;BME280;63008;53.112;8.896;2022-09-03T05:07:21;101591.31;;;12.88;65.14
5126;BME280;63008;53.112;8.896;2022-09-03T05:09:23;101601.88;;;12.86;64.93
5126;BME280;63008;53.112;8.896;2022-09-03T05:11:26;101594.75;;;12.85;64.91
5126;BME280;63008;53.112;8.896;2022-09-03T05:13:27;101603.47;;;12.87;65.33
5126;BME280;63008;53.112;8.896;2022-09-03T05:15:29;101608.19;;;12.95;64.81
5126;BME280;63008;53.112;8.896;2022-09-03T05:17:30;101602.00;;;12.90;64.79
5126;BME280;63008;53.112;8.896;2022-09-03T05:19:31;101604.44;;;12.91;64.89
5126;BME280;63008;53.112;8.896;2022-09-03T05:21:31;101604.44;;;12.91;64.98
5126;BME280;63008;53.112;8.896;2022-09-03T05:23:43;101607.69;;;12.93;65.11
5126;BME280;63008;53.112;8.896;2022-09-03T05:25:54;101603.63;;;12.91;65.02
5126;BME280;63008;53.112;8.896;2022-09-03T05:27:57;101603.97;;;12.98;64.68
5126;BME280;63008;53.112;8.896;2022-09-03T05:29:57;101595.34;;;12.99;65.06
5126;BME280;63008;53.112;8.896;2022-09-03T05:31:58;101601.69;;;13.00;64.97
5126;BME280;63008;53.112;8.896;2022-09-03T05:34:02;101600.19;;;13.02;64.61
5126;BME280;63008;53.112;8.896;2022-09-03T05:36:05;101604.91;;;13.10;64.67
5126;BME280;63008;53.112;8.896;2022-09-03T05:38:06;101595.66;;;13.15;64.51
5126;BME280;63008;53.112;8.896;2022-09-03T05:40:09;101600.97;;;13.20;64.43
5126;BME280;63008;53.112;8.896;2022-09-03T05:42:12;101596.75;;;13.22;63.89
5126;BME280;63008;53.112;8.896;2022-09-03T05:44:14;101602.75;;;13.24;64.44
5126;BME280;63008;53.112;8.896;2022-09-03T05:46:14;101598.34;;;13.32;64.31
5126;BME280;63008;53.112;8.896;2022-09-03T05:48:17;101590.66;;;13.37;63.89
5126;BME280;63008;53.112;8.896;2022-09-03T05:50:18;101595.84;;;13.39;63.85
5126;BME280;63008;53.112;8.896;2022-09-03T05:52:18;101594.88;;;13.43;63.77
5126;BME280;63008;53.112;8.896;2022-09-03T05:54:20;101597.09;;;13.50;63.78
5126;BME280;63008;53.112;8.896;2022-09-03T05:56:23;101601.59;;;13.54;63.83
5126;BME280;63008;53.112;8.896;2022-09-03T05:58:29;101597.19;;;13.62;63.44
5126;BME280;63008;53.112;8.896;2022-09-03T06:00:30;101603.78;;;13.69;62.97
5126;BME280;63008;53.112;8.896;2022-09-03T06:02:30;101608.16;;;13.70;63.97
5126;BME280;63008;53.112;8.896;2022-09-03T06:04:31;101602.59;;;13.79;63.24
5126;BME280;63008;53.112;8.896;2022-09-03T06:06:35;101597.75;;;13.76;63.28
5126;BME280;63008;53.112;8.896;2022-09-03T06:08:36;101608.59;;;13.81;63.29
5126;BME280;63008;53.112;8.896;2022-09-03T06:10:38;101600.31;;;13.81;62.99
5126;BME280;63008;53.112;8.896;2022-09-03T06:12:38;101605.97;;;13.84;63.16
5126;BME280;63008;53.112;8.896;2022-09-03T06:14:39;101607.06;;;13.92;63.49
5126;BME280;63008;53.112;8.896;2022-09-03T06:16:41;101603.16;;;13.93;62.98
5126;BME280;63008;53.112;8.896;2022-09-03T06:18:42;101611.06;;;14.03;62.99
5126;BME280;63008;53.112;8.896;2022-09-03T06:20:42;101601.09;;;14.10;62.15
5126;BME280;63008;53.112;8.896;2022-09-03T06:22:47;101606.13;;;14.08;62.58
5126;BME280;63008;53.112;8.896;2022-09-03T06:24:48;101603.19;;;14.13;62.71
5126;BME280;63008;53.112;8.896;2022-09-03T06:26:48;101602.22;;;14.18;62.21
5126;BME280;63008;53.112;8.896;2022-09-03T06:28:49;101609.75;;;14.29;62.17
5126;BME280;63008;53.112;8.896;2022-09-03T06:30:57;101601.25;;;14.34;62.08
5126;BME280;63008;53.112;8.896;2022-09-03T06:32:58;101599.22;;;14.43;62.51
5126;BME280;63008;53.112;8.896;2022-09-03T06:34:58;101605.47;;;14.52;61.53
5126;BME280;63008;53.112;8.896;2022-09-03T06:36:59;101609.53;;;14.55;61.47
5126;BME280;63008;53.112;8.896;2022-09-03T06:39:03;101600.56;;;14.58;61.85
5126;BME280;63008;53.112;8.896;2022-09-03T06:41:05;101604.38;;;14.65;62.03
5126;BME280;63008;53.112;8.896;2022-09-03T06:43:06;101595.19;;;14.73;61.27
5126;BME280;63008;53.112;8.896;2022-09-03T06:45:08;101604.31;;;14.85;61.01
5126;BME280;63008;53.112;8.896;2022-09-03T06:47:09;101594.31;;;14.93;60.61
5126;BME280;63008;53.112;8.896;2022-09-03T06:49:10;101599.44;;;15.03;60.11
5126;BME280;63008;53.112;8.896;2022-09-03T06:51:13;101605.31;;;15.13;60.39
5126;BME280;63008;53.112;8.896;2022-09-03T06:53:14;101609.06;;;15.29;59.81
5126;BME280;63008;53.112;8.896;2022-09-03T06:55:15;101598.81;;;15.42;59.05
5126;BME280;63008;53.112;8.896;2022-09-03T06:57:16;101605.97;;;15.55;59.62
5126;BME280;63008;53.112;8.896;2022-09-03T06:59:17;101601.56;;;15.78;58.48
5126;BME280;63008;53.112;8.896;2022-09-03T07:01:20;101602.00;;;15.92;57.52
5126;BME280;63008;53.112;8.896;2022-09-03T07:03:21;101603.63;;;16.05;57.13
5126;BME280;63008;53.112;8.896;2022-09-03T07:05:21;101603.69;;;16.20;57.01
5126;BME280;63008;53.112;8.896;2022-09-03T07:07:24;101606.56;;;16.24;57.28
5126;BME280;63008;53.112;8.896;2022-09-03T07:09:25;101610.13;;;16.36;56.42
5126;BME280;63008;53.112;8.896;2022-09-03T07:11:28;101605.59;;;16.44;55.79
5126;BME280;63008;53.112;8.896;2022-09-03T07:13:30;101607.22;;;16.45;55.74
5126;BME280;63008;53.112;8.896;2022-09-03T07:15:32;101609.97;;;16.45;56.18
5126;BME280;63008;53.112;8.896;2022-09-03T07:17:33;101597.84;;;16.49;56.28
5126;BME280;63008;53.112;8.896;2022-09-03T07:19:33;101611.44;;;16.54;56.35
5126;BME280;63008;53.112;8.896;2022-09-03T07:21:35;101599.31;;;16.58;56.23
5126;BME280;63008;53.112;8.896;2022-09-03T07:23:43;101607.03;;;16.65;55.95
5126;BME280;63008;53.112;8.896;2022-09-03T07:25:51;101599.53;;;16.81;55.25
5126;BME280;63008;53.112;8.896;2022-09-03T07:27:52;101595.91;;;16.92;55.20
5126;BME280;63008;53.112;8.896;2022-09-03T07:29:52;101601.00;;;17.06;54.47
5126;BME280;63008;53.112;8.896;2022-09-03T07:31:53;101602.00;;;17.13;54.42
5126;BME280;63008;53.112;8.896;2022-09-03T07:33:55;101600.03;;;17.14;54.27
5126;BME280;63008;53.112;8.896;2022-09-03T07:36:00;101598.34;;;17.09;53.76
5126;BME280;63008;53.112;8.896;2022-09-03T07:38:01;101596.25;;;17.06;54.41
5126;BME280;63008;53.112;8.896;2022-09-03T07:40:02;101597.63;;;17.12;54.32
5126;BME280;63008;53.112;8.896;2022-09-03T07:42:05;101597.53;;;17.24;53.51
5126;BME280;63008;53.112;8.896;2022-09-03T07:44:08;101596.94;;;17.46;53.07
5126;BME280;63008;53.112;8.896;2022-09-03T07:46:09;101599.97;;;17.57;53.21
5126;BME280;63008;53.112;8.896;2022-09-03T07:48:12;101604.34;;;17.73;53.02
5126;BME280;63008;53.112;8.896;2022-09-03T07:50:13;101600.63;;;18.00;51.92
5126;BME280;63008;53.112;8.896;2022-09-03T07:52:15;101597.97;;;18.07;52.41
5126;BME280;63008;53.112;8.896;2022-09-03T07:54:16;101596.81;;;18.08;52.43
5126;BME280;63008;53.112;8.896;2022-09-03T07:56:16;101600.78;;;18.26;51.36
5126;BME280;63008;53.112;8.896;2022-09-03T07:58:17;101596.38;;;18.41;51.07
5126;BME280;63008;53.112;8.896;2022-09-03T08:00:17;101589.91;;;18.55;50.55
5126;BME280;63008;53.112;8.896;2022-09-03T08:02:18;101586.34;;;18.55;51.07
5126;BME280;63008;53.112;8.896;2022-09-03T08:04:22;101592.31;;;18.76;50.46
5126;BME280;63008;53.112;8.896;2022-09-03T08:06:25;101593.81;;;18.92;49.91
5126;BME280;63008;53.112;8.896;2022-09-03T08:08:25;101594.59;;;19.12;49.38
5126;BME280;63008;53.112;8.896;2022-09-03T08:10:26;101597.81;;;19.14;49.33
5126;BME280;63008;53.112;8.896;2022-09-03T08:12:30;101599.38;;;19.34;49.19
5126;BME280;63008;53.112;8.896;2022-09-03T08:14:32;101594.63;;;19.34;49.07
5126;BME280;63008;53.112;8.896;2022-09-03T08:16:35;101591.59;;;19.43;49.66
5126;BME280;63008;53.112;8.896;2022-09-03T08:18:37;101592.69;;;19.61;48.97
5126;BME280;63008;53.112;8.896;2022-09-03T08:20:38;101604.97;;;19.82;49.43
5126;BME280;63008;53.112;8.896;2022-09-03T08:22:39;101591.88;;;19.86;48.53
5126;BME280;63008;53.112;8.896;2022-09-03T08:24:39;101597.56;;;19.93;47.79
5126;BME280;63008;53.112;8.896;2022-09-03T08:26:41;101597.72;;;20.04;47.74
5126;BME280;63008;53.112;8.896;2022-09-03T08:28:43;101603.16;;;20.19;48.28
5126;BME280;63008;53.112;8.896;2022-09-03T08:30:44;101602.59;;;20.36;46.16
5126;BME280;63008;53.112;8.896;2022-09-03T08:32:44;101607.75;;;20.38;46.16
5126;BME280;63008;53.112;8.896;2022-09-03T08:34:45;101612.63;;;20.44;45.71
5126;BME280;63008;53.112;8.896;2022-09-03T08:36:46;101604.03;;;20.56;45.50
5126;BME280;63008;53.112;8.896;2022-09-03T08:38:47;101602.13;;;20.63;45.06
5126;BME280;63008;53.112;8.896;2022-09-03T08:40:51;101598.63;;;20.73;44.68
5126;BME280;63008;53.112;8.896;2022-09-03T08:45:09;101601.69;;;20.91;44.16
5126;BME280;63008;53.112;8.896;2022-09-03T08:49:26;101604.47;;;21.31;44.07
5126;BME280;63008;53.112;8.896;2022-09-03T08:51:31;101603.00;;;21.44;43.04
5126;BME280;63008;53.112;8.896;2022-09-03T08:53:48;101600.72;;;21.60;43.65
5126;BME280;63008;53.112;8.896;2022-09-03T08:56:09;101605.88;;;21.54;43.46
5126;BME280;63008;53.112;8.896;2022-09-03T09:00:11;101596.72;;;21.57;42.84
5126;BME280;63008;53.112;8.896;2022-09-03T09:07:16;101602.28;;;22.04;40.89
5126;BME280;63008;53.112;8.896;2022-09-03T09:09:46;101609.19;;;22.31;40.63
5126;BME280;63008;53.112;8.896;2022-09-03T09:14:23;101598.72;;;23.10;40.28
5126;BME280;63008;53.112;8.896;2022-09-03T09:21:10;101598.00;;;23.51;37.81
5126;BME280;63008;53.112;8.896;2022-09-03T09:23:26;101592.75;;;23.36;38.13
5126;BME280;63008;53.112;8.896;2022-09-03T09:25:29;101597.91;;;24.11;37.25
5126;BME280;63008;53.112;8.896;2022-09-03T09:27:31;101583.94;;;23.65;37.59
5126;BME280;63008;53.112;8.896;2022-09-03T09:29:37;101582.75;;;23.98;36.71
5126;BME280;63008;53.112;8.896;2022-09-03T09:31:38;101589.13;;;24.02;37.25
5126;BME280;63008;53.112;8.896;2022-09-03T09:33:40;101589.78;;;24.51;36.78
5126;BME280;63008;53.112;8.896;2022-09-03T09:35:44;101590.50;;;24.76;35.54
5126;BME280;63008;53.112;8.896;2022-09-03T09:37:56;101588.97;;;24.57;36.31
5126;BME280;63008;53.112;8.896;2022-09-03T09:39:59;101585.84;;;24.27;35.86
5126;BME280;63008;53.112;8.896;2022-09-03T09:44:04;101579.13;;;23.97;36.16
5126;BME280;63008;53.112;8.896;2022-09-03T09:46:13;101577.38;;;24.38;37.28
5126;BME280;63008;53.112;8.896;2022-09-03T09:50:31;101582.56;;;24.50;35.78
5126;BME280;63008;53.112;8.896;2022-09-03T09:52:38;101581.31;;;24.61;36.06
5126;BME280;63008;53.112;8.896;2022-09-03T09:54:42;101584.16;;;25.30;34.51
5126;BME280;63008;53.112;8.896;2022-09-03T09:56:58;101570.47;;;24.70;35.88
5126;BME280;63008;53.112;8.896;2022-09-03T09:59:11;101580.03;;;24.76;36.44
5126;BME280;63008;53.112;8.896;2022-09-03T10:01:17;101575.13;;;24.94;35.26
5126;BME280;63008;53.112;8.896;2022-09-03T10:03:21;101573.19;;;24.81;35.71
5126;BME280;63008;53.112;8.896;2022-09-03T10:05:39;101572.78;;;24.82;34.08
5126;BME280;63008;53.112;8.896;2022-09-03T10:07:40;101567.38;;;25.19;34.19
5126;BME280;63008;53.112;8.896;2022-09-03T10:09:41;101565.31;;;25.23;33.70
5126;BME280;63008;53.112;8.896;2022-09-03T10:11:44;101556.50;;;25.21;34.34
5126;BME280;63008;53.112;8.896;2022-09-03T10:13:47;101557.19;;;25.32;34.04
5126;BME280;63008;53.112;8.896;2022-09-03T10:16:01;101550.88;;;25.21;34.05
5126;BME280;63008;53.112;8.896;2022-09-03T10:18:26;101551.22;;;25.27;34.32
5126;BME280;63008;53.112;8.896;2022-09-03T10:20:48;101551.25;;;25.67;33.65
5126;BME280;63008;53.112;8.896;2022-09-03T10:23:24;101556.13;;;25.19;34.96
5126;BME280;63008;53.112;8.896;2022-09-03T10:27:56;101553.84;;;25.92;32.46
5126;BME280;63008;53.112;8.896;2022-09-03T10:30:00;101564.22;;;26.35;31.47
5126;BME280;63008;53.112;8.896;2022-09-03T10:37:17;101541.59;;;26.09;31.75
5126;BME280;63008;53.112;8.896;2022-09-03T10:39:39;101553.56;;;26.16;32.79
5126;BME280;63008;53.112;8.896;2022-09-03T10:46:27;101549.38;;;26.31;29.88
5126;BME280;63008;53.112;8.896;2022-09-03T10:50:47;101535.06;;;25.82;31.26
5126;BME280;63008;53.112;8.896;2022-09-03T10:53:17;101545.84;;;25.90;30.97
5126;BME280;63008;53.112;8.896;2022-09-03T11:05:21;101535.34;;;25.94;32.54
5126;BME280;63008;53.112;8.896;2022-09-03T11:07:07;101545.94;;;26.46;31.71
5126;BME280;63008;53.112;8.896;2022-09-03T11:11:44;101535.19;;;25.68;32.26
5126;BME280;63008;53.112;8.896;2022-09-03T11:13:58;101532.75;;;25.26;32.81
5126;BME280;63008;53.112;8.896;2022-09-03T11:16:08;101528.41;;;25.62;32.22
5126;BME280;63008;53.112;8.896;2022-09-03T11:20:39;101519.41;;;25.77;32.17
5126;BME280;63008;53.112;8.896;2022-09-03T11:22:42;101520.69;;;26.39;31.89
5126;BME280;63008;53.112;8.896;2022-09-03T11:24:53;101514.84;;;26.27;31.46
5126;BME280;63008;53.112;8.896;2022-09-03T11:27:19;101514.06;;;26.83;30.53
5126;BME280;63008;53.112;8.896;2022-09-03T11:29:31;101525.06;;;26.44;31.22
5126;BME280;63008;53.112;8.896;2022-09-03T11:31:55;101510.53;;;26.79;30.48
5126;BME280;63008;53.112;8.896;2022-09-03T11:34:11;101505.50;;;27.16;29.32
5126;BME280;63008;53.112;8.896;2022-09-03T11:36:29;101510.66;;;26.95;30.92
5126;BME280;63008;53.112;8.896;2022-09-03T11:38:30;101506.13;;;26.15;30.94
5126;BME280;63008;53.112;8.896;2022-09-03T11:40:36;101508.25;;;26.37;31.01
5126;BME280;63008;53.112;8.896;2022-09-03T11:42:39;101497.91;;;27.59;29.40
5126;BME280;63008;53.112;8.896;2022-09-03T11:44:42;101497.81;;;27.63;29.20
5126;BME280;63008;53.112;8.896;2022-09-03T11:46:56;101495.94;;;27.10;29.49
5126;BME280;63008;53.112;8.896;2022-09-03T11:49:22;101503.66;;;27.29;30.05
5126;BME280;63008;53.112;8.896;2022-09-03T11:53:35;101502.84;;;26.53;30.79
5126;BME280;63008;53.112;8.896;2022-09-03T11:55:55;101497.91;;;26.87;30.48
5126;BME280;63008;53.112;8.896;2022-09-03T11:58:10;101503.31;;;26.48;30.19
5126;BME280;63008;53.112;8.896;2022-09-03T12:00:14;101489.72;;;26.96;30.53
5126;BME280;63008;53.112;8.896;2022-09-03T12:02:27;101486.13;;;27.41;29.33
5126;BME280;63008;53.112;8.896;2022-09-03T12:04:38;101482.59;;;27.80;28.93
5126;BME280;63008;53.112;8.896;2022-09-03T12:09:07;101498.47;;;28.32;28.06
5126;BME280;63008;53.112;8.896;2022-09-03T12:11:43;101493.63;;;28.13;27.31
5126;BME280;63008;53.112;8.896;2022-09-03T12:13:59;101491.94;;;28.16;28.19
5126;BME280;63008;53.112;8.896;2022-09-03T12:18:31;101488.13;;;27.64;30.30
5126;BME280;63008;53.112;8.896;2022-09-03T12:20:32;101485.13;;;27.51;29.15
5126;BME280;63008;53.112;8.896;2022-09-03T12:22:35;101487.75;;;26.36;30.00
5126;BME280;63008;53.112;8.896;2022-09-03T12:24:38;101485.03;;;26.86;30.92
5126;BME280;63008;53.112;8.896;2022-09-03T12:26:40;101488.97;;;27.61;28.97
5126;BME280;63008;53.112;8.896;2022-09-03T12:28:44;101478.56;;;27.58;27.87
5126;BME280;63008;53.112;8.896;2022-09-03T12:30:45;101471.16;;;28.26;28.12
5126;BME280;63008;53.112;8.896;2022-09-03T12:32:46;101480.22;;;27.78;28.42
5126;BME280;63008;53.112;8.896;2022-09-03T12:34:47;101480.41;;;28.26;28.59
5126;BME280;63008;53.112;8.896;2022-09-03T12:36:50;101482.59;;;28.73;27.95
5126;BME280;63008;53.112;8.896;2022-09-03T12:38:53;101479.88;;;28.86;27.32
5126;BME280;63008;53.112;8.896;2022-09-03T12:40:54;101483.06;;;28.37;28.11
5126;BME280;63008;53.112;8.896;2022-09-03T12:43:11;101472.69;;;28.11;27.91
5126;BME280;63008;53.112;8.896;2022-09-03T12:45:12;101485.56;;;29.18;27.18
5126;BME280;63008;53.112;8.896;2022-09-03T12:47:19;101479.63;;;28.61;27.77
5126;BME280;63008;53.112;8.896;2022-09-03T12:49:20;101473.69;;;28.20;28.38
5126;BME280;63008;53.112;8.896;2022-09-03T12:51:21;101480.34;;;29.48;26.69
5126;BME280;63008;53.112;8.896;2022-09-03T12:53:27;101474.75;;;28.45;27.05